Sukkertoppen, Greenland
Current Conditions -  °F | °C
As of 10:50 AM on Monday 20 Oct 2014 (Local Time) from BGGH Reporting Station
Scattered Clouds Scattered Clouds  
Wind Chill: 12°   Ceiling: Unl
Heat Index: 25°   Visibility: 6mi
Dew Point: 14°   Wind: 16mph
Humidity: 64%   Direction: 40°NE
Pressure: 29.91"   Gusts: NA
Location:  65.43°N, 52.93°W
Report Text: BGGH 201250Z 04014KT 9999 SCT200 M04/M10 Q1013
Loading
Personal Weather Stations






























Interactive Weather Map
Tropical Storm Tracking
New forecast layout! Learn more

10-Day Weather Forecast

Advertisements
Track Severe Weather on mobile